Time;durP1;ratioP1;P1;durP2;ratioP2;P2;SDS_P1;SDS_P2;PMS_P1;PMS_P2;Temp;Humidity;BMP_temperature;BMP_pressure;BME280_temperature;BME280_humidity;BME280_pressure;Samples;Min_cycle;Max_cycle;Signal;HPM_P1;HPM_P2
2023/08/01 00:00:05;;;;;;;4.67;3.10;;;;;;;;;;510949;28;1449;-77
2023/08/01 00:00:21;;;;;;;4.50;3.03;;;;;;;;;;511207;28;1369;-77
2023/08/01 00:00:36;;;;;;;4.50;3.00;;;;;;;;;;508988;28;1287;-77
2023/08/01 00:00:52;;;;;;;4.90;2.88;;;;;;;;;;510848;28;1375;-77
2023/08/01 00:01:08;;;;;;;4.93;2.70;;;;;;;;;;510644;28;1644;-77
2023/08/01 00:01:24;;;;;;;4.70;2.80;;;;;;;;;;510096;28;1264;-77
2023/08/01 00:01:39;;;;;;;4.27;2.93;;;;;;;;;;508900;28;1555;-76
2023/08/01 00:01:55;;;;;;;5.25;2.83;;;;;;;;;;506036;28;1264;-76
2023/08/01 00:02:11;;;;;;;5.22;2.78;;;;;;;;;;506814;28;1127;-76
2023/08/01 00:02:27;;;;;;;5.15;2.80;;;;;;;;;;508113;28;1503;-76
2023/08/01 00:02:42;;;;;;;6.17;3.10;;;;;;;;;;508084;28;1288;-77
2023/08/01 00:02:58;;;;;;;5.75;3.10;;;;;;;;;;507566;28;1960;-77
2023/08/01 00:03:13;;;;;;;4.82;2.90;;;;;;;;;;506844;28;1362;-76
2023/08/01 00:03:29;;;;;;;4.73;2.97;;;;;;;;;;508638;28;1298;-77
2023/08/01 00:03:45;;;;;;;5.63;3.20;;;;;;;;;;507803;28;1372;-76
2023/08/01 00:04:00;;;;;;;4.97;3.03;;;;;;;;;;506233;28;1275;-77
2023/08/01 00:04:16;;;;;;;4.32;2.90;;;;;;;;;;506079;28;1310;-77
2023/08/01 00:04:31;;;;;;;4.55;2.80;;;;;;;;;;506015;28;1119;-77
2023/08/01 00:04:47;;;;;;;3.87;2.60;;;;;;;;;;506035;28;1442;-76
2023/08/01 00:05:03;;;;;;;3.70;2.60;;;;;;;;;;508151;28;1410;-76
2023/08/01 00:05:19;;;;;;;4.20;2.67;;;;;;;;;;510180;28;1602;-76
2023/08/01 00:05:34;;;;;;;4.70;2.70;;;;;;;;;;508389;28;1240;-77
2023/08/01 00:05:50;;;;;;;4.32;2.70;;;;;;;;;;509657;28;1338;-77
2023/08/01 00:06:05;;;;;;;3.63;2.60;;;;;;;;;;509413;28;1205;-76
2023/08/01 00:06:22;;;;;;;3.67;2.70;;;;;;;;;;510345;28;1355;-76
2023/08/01 00:06:46;;;;;;;4.35;2.70;;;;;;;;;;510296;28;1476;-78
2023/08/01 00:07:02;;;;;;;3.80;2.50;;;;;;;;;;508712;28;1565;-76
2023/08/01 00:07:17;;;;;;;4.33;2.67;;;;;;;;;;507968;28;1266;-77
2023/08/01 00:07:53;;;;;;;3.95;2.53;;;;;;;;;;510624;28;1343;-77
2023/08/01 00:08:29;;;;;;;3.08;2.30;;;;;;;;;;508657;28;1344;-77
2023/08/01 00:08:45;;;;;;;3.47;2.20;;;;;;;;;;508573;28;1275;-77
2023/08/01 00:09:00;;;;;;;3.47;2.20;;;;;;;;;;509896;28;1446;-77
2023/08/01 00:09:16;;;;;;;3.25;2.10;;;;;;;;;;511463;28;987;-77
2023/08/01 00:09:31;;;;;;;2.70;1.93;;;;;;;;;;510579;28;1219;-77
2023/08/01 00:09:47;;;;;;;2.40;1.95;;;;;;;;;;511435;28;1094;-76
2023/08/01 00:10:03;;;;;;;2.58;1.90;;;;;;;;;;510326;28;1339;-76
2023/08/01 00:10:19;;;;;;;2.60;1.80;;;;;;;;;;508890;28;1509;-76
2023/08/01 00:10:34;;;;;;;2.50;1.90;;;;;;;;;;509465;28;952;-77
2023/08/01 00:11:11;;;;;;;2.20;1.88;;;;;;;;;;509169;28;959;-77
2023/08/01 00:11:27;;;;;;;3.22;1.70;;;;;;;;;;512949;28;1062;-76
2023/08/01 00:11:42;;;;;;;3.17;1.70;;;;;;;;;;514133;28;1418;-78
2023/08/01 00:11:58;;;;;;;2.78;1.65;;;;;;;;;;511719;28;1291;-77
2023/08/01 00:12:14;;;;;;;2.67;1.63;;;;;;;;;;510317;28;1268;-78
2023/08/01 00:12:30;;;;;;;2.20;1.60;;;;;;;;;;510661;28;1489;-77
2023/08/01 00:12:46;;;;;;;2.55;1.60;;;;;;;;;;510947;28;1271;-78
2023/08/01 00:13:01;;;;;;;2.30;1.67;;;;;;;;;;510407;28;1158;-76
2023/08/01 00:13:17;;;;;;;2.00;1.60;;;;;;;;;;510602;28;1296;-77
2023/08/01 00:13:32;;;;;;;2.20;1.63;;;;;;;;;;510965;28;1105;-78
2023/08/01 00:13:48;;;;;;;2.60;1.70;;;;;;;;;;510540;28;1404;-76
2023/08/01 00:14:04;;;;;;;3.10;1.80;;;;;;;;;;510599;28;1113;-77
2023/08/01 00:14:20;;;;;;;2.80;1.60;;;;;;;;;;509507;28;1252;-77
2023/08/01 00:14:36;;;;;;;3.55;1.60;;;;;;;;;;510890;28;1133;-77
2023/08/01 00:14:52;;;;;;;3.20;1.70;;;;;;;;;;510656;28;961;-76
2023/08/01 00:15:08;;;;;;;2.60;1.67;;;;;;;;;;509290;28;1386;-77
2023/08/01 00:15:24;;;;;;;2.50;1.65;;;;;;;;;;511328;28;1126;-76
2023/08/01 00:15:39;;;;;;;2.33;1.53;;;;;;;;;;509800;28;1244;-77
2023/08/01 00:15:55;;;;;;;2.25;1.63;;;;;;;;;;507382;28;1256;-78
2023/08/01 00:16:11;;;;;;;2.40;1.70;;;;;;;;;;508591;28;1453;-77
2023/08/01 00:16:47;;;;;;;2.70;1.67;;;;;;;;;;507689;28;1339;-77
2023/08/01 00:17:03;;;;;;;2.92;1.55;;;;;;;;;;509021;28;1101;-76
2023/08/01 00:17:19;;;;;;;2.80;1.60;;;;;;;;;;509660;28;1411;-77
2023/08/01 00:17:54;;;;;;;3.33;1.70;;;;;;;;;;508971;28;1314;-77
2023/08/01 00:18:10;;;;;;;2.53;1.60;;;;;;;;;;510382;28;1391;-77
2023/08/01 00:18:26;;;;;;;2.58;1.58;;;;;;;;;;513035;28;944;-77
2023/08/01 00:18:41;;;;;;;2.43;1.60;;;;;;;;;;511636;28;1279;-77
2023/08/01 00:18:57;;;;;;;3.00;1.77;;;;;;;;;;510532;28;1227;-76
2023/08/01 00:19:12;;;;;;;2.90;1.67;;;;;;;;;;513207;28;1370;-78
2023/08/01 00:19:28;;;;;;;2.25;1.50;;;;;;;;;;510586;28;1458;-76
2023/08/01 00:20:04;;;;;;;2.40;1.65;;;;;;;;;;508443;28;1399;-77
2023/08/01 00:20:41;;;;;;;2.45;1.60;;;;;;;;;;506898;28;1315;-77
2023/08/01 00:20:56;;;;;;;4.82;1.70;;;;;;;;;;508772;28;1403;-77
2023/08/01 00:21:12;;;;;;;5.60;1.70;;;;;;;;;;507811;28;1280;-77
2023/08/01 00:21:30;;;;;;;3.00;1.65;;;;;;;;;;508725;28;1544;-77
2023/08/01 00:21:46;;;;;;;3.33;1.60;;;;;;;;;;510421;28;1349;-77
2023/08/01 00:22:02;;;;;;;4.18;1.60;;;;;;;;;;508215;28;1429;-77
2023/08/01 00:22:18;;;;;;;3.25;1.58;;;;;;;;;;505690;28;1058;-76
2023/08/01 00:22:54;;;;;;;2.70;1.60;;;;;;;;;;507874;28;1305;-77
2023/08/01 00:23:09;;;;;;;2.38;1.50;;;;;;;;;;507268;28;1494;-77
2023/08/01 00:23:45;;;;;;;2.22;1.50;;;;;;;;;;508951;28;1216;-77
2023/08/01 00:24:21;;;;;;;2.42;1.50;;;;;;;;;;510498;28;1227;-77
2023/08/01 00:24:37;;;;;;;2.30;1.52;;;;;;;;;;511915;28;1886;-76
2023/08/01 00:24:53;;;;;;;2.30;1.42;;;;;;;;;;510240;28;1094;-77
2023/08/01 00:25:08;;;;;;;2.43;1.50;;;;;;;;;;510641;28;1299;-76
2023/08/01 00:25:24;;;;;;;1.83;1.42;;;;;;;;;;512511;28;1433;-75
2023/08/01 00:25:39;;;;;;;2.17;1.40;;;;;;;;;;510350;28;1264;-77
2023/08/01 00:25:55;;;;;;;2.10;1.35;;;;;;;;;;508795;28;1374;-76
2023/08/01 00:26:10;;;;;;;2.20;1.47;;;;;;;;;;508935;28;1252;-76
2023/08/01 00:26:26;;;;;;;2.75;1.60;;;;;;;;;;508489;28;1058;-77
2023/08/01 00:26:42;;;;;;;2.90;1.60;;;;;;;;;;508899;28;1379;-76
2023/08/01 00:27:18;;;;;;;3.00;1.60;;;;;;;;;;509714;28;1252;-76
2023/08/01 00:27:33;;;;;;;2.47;1.60;;;;;;;;;;507461;28;1219;-76
2023/08/01 00:27:51;;;;;;;2.70;1.60;;;;;;;;;;508016;28;1366;-76
2023/08/01 00:28:06;;;;;;;3.38;1.70;;;;;;;;;;508751;28;1327;-76
2023/08/01 00:28:22;;;;;;;4.03;1.77;;;;;;;;;;507567;28;1413;-76
2023/08/01 00:28:38;;;;;;;2.63;1.55;;;;;;;;;;506792;28;1345;-77
2023/08/01 00:29:14;;;;;;;2.00;1.33;;;;;;;;;;509256;28;948;-77
2023/08/01 00:29:30;;;;;;;2.20;1.50;;;;;;;;;;508846;28;1479;-77
2023/08/01 00:30:06;;;;;;;2.22;1.42;;;;;;;;;;508316;28;1508;-76
2023/08/01 00:30:22;;;;;;;2.40;1.38;;;;;;;;;;508710;28;1491;-76
2023/08/01 00:30:37;;;;;;;1.80;1.40;;;;;;;;;;509440;28;1165;-77
2023/08/01 00:31:04;;;;;;;1.92;1.48;;;;;;;;;;508178;28;1444;-76
2023/08/01 00:31:20;;;;;;;2.15;1.40;;;;;;;;;;505527;28;1008;-77
2023/08/01 00:31:35;;;;;;;2.15;1.60;;;;;;;;;;507574;28;1295;-76
2023/08/01 00:32:11;;;;;;;2.60;1.50;;;;;;;;;;507757;28;1304;-76
2023/08/01 00:32:27;;;;;;;2.00;1.45;;;;;;;;;;506954;28;1478;-76
2023/08/01 00:32:43;;;;;;;2.17;1.50;;;;;;;;;;509772;28;1114;-77
2023/08/01 00:32:58;;;;;;;2.28;1.50;;;;;;;;;;507010;28;1296;-76
2023/08/01 00:33:14;;;;;;;2.30;1.60;;;;;;;;;;507120;28;1244;-76
2023/08/01 00:33:30;;;;;;;2.75;1.50;;;;;;;;;;509152;28;1001;-75
2023/08/01 00:34:06;;;;;;;2.60;1.30;;;;;;;;;;511659;28;970;-78
2023/08/01 00:34:21;;;;;;;2.80;1.50;;;;;;;;;;509728;28;1333;-77
2023/08/01 00:34:57;;;;;;;2.70;1.50;;;;;;;;;;510117;28;1247;-76
2023/08/01 00:35:13;;;;;;;2.38;1.50;;;;;;;;;;509473;28;1292;-75
2023/08/01 00:35:28;;;;;;;2.43;1.50;;;;;;;;;;510961;28;1280;-76
2023/08/01 00:35:44;;;;;;;1.95;1.40;;;;;;;;;;510773;28;1339;-77
2023/08/01 00:36:00;;;;;;;3.00;1.50;;;;;;;;;;509195;28;1359;-77
2023/08/01 00:36:15;;;;;;;4.82;1.70;;;;;;;;;;506691;28;1360;-77
2023/08/01 00:36:31;;;;;;;6.32;1.63;;;;;;;;;;508606;28;1378;-76
2023/08/01 00:36:46;;;;;;;3.80;1.70;;;;;;;;;;505366;28;1309;-76
2023/08/01 00:37:02;;;;;;;2.33;1.58;;;;;;;;;;508070;28;1320;-77
2023/08/01 00:37:18;;;;;;;1.85;1.33;;;;;;;;;;508320;28;1406;-77
2023/08/01 00:37:33;;;;;;;1.90;1.43;;;;;;;;;;507472;28;1454;-77
2023/08/01 00:37:49;;;;;;;2.20;1.50;;;;;;;;;;508004;28;1316;-77
2023/08/01 00:38:05;;;;;;;2.30;1.43;;;;;;;;;;505665;28;1233;-76
2023/08/01 00:38:21;;;;;;;2.65;1.40;;;;;;;;;;506339;28;1288;-76
2023/08/01 00:38:37;;;;;;;3.72;1.48;;;;;;;;;;504750;28;1271;-76
2023/08/01 00:38:52;;;;;;;3.72;1.48;;;;;;;;;;504920;28;1414;-76
2023/08/01 00:39:09;;;;;;;2.88;1.50;;;;;;;;;;506308;28;1244;-77
2023/08/01 00:39:24;;;;;;;2.28;1.50;;;;;;;;;;504971;28;1098;-77
2023/08/01 00:39:40;;;;;;;2.40;1.50;;;;;;;;;;505378;28;1432;-76
2023/08/01 00:39:56;;;;;;;2.80;1.50;;;;;;;;;;506249;28;968;-77
2023/08/01 00:40:12;;;;;;;2.10;1.37;;;;;;;;;;507131;28;1374;-77
2023/08/01 00:40:31;;;;;;;1.60;1.30;;;;;;;;;;506668;28;1264;-77
2023/08/01 00:40:47;;;;;;;1.83;1.30;;;;;;;;;;507885;28;1205;-77
2023/08/01 00:41:03;;;;;;;2.45;1.40;;;;;;;;;;506290;28;1341;-76
2023/08/01 00:41:18;;;;;;;3.00;1.48;;;;;;;;;;506586;28;1347;-77
2023/08/01 00:41:34;;;;;;;2.55;1.30;;;;;;;;;;507929;28;1393;-77
2023/08/01 00:41:50;;;;;;;1.70;1.13;;;;;;;;;;509287;28;1280;-76
2023/08/01 00:42:05;;;;;;;1.63;1.20;;;;;;;;;;511426;28;1151;-76
2023/08/01 00:42:21;;;;;;;1.98;1.40;;;;;;;;;;510768;28;1348;-76
2023/08/01 00:42:40;;;;;;;2.13;1.30;;;;;;;;;;509296;28;1438;-76
2023/08/01 00:42:56;;;;;;;2.35;1.38;;;;;;;;;;507058;28;1912;-76
2023/08/01 00:43:12;;;;;;;1.83;1.40;;;;;;;;;;507695;28;1541;-77
2023/08/01 00:43:27;;;;;;;2.30;1.50;;;;;;;;;;505869;28;1341;-76
2023/08/01 00:43:43;;;;;;;2.17;1.40;;;;;;;;;;506335;28;971;-77
2023/08/01 00:43:58;;;;;;;2.30;1.30;;;;;;;;;;508172;28;1343;-77
2023/08/01 00:44:14;;;;;;;4.28;1.40;;;;;;;;;;508850;28;1325;-76
2023/08/01 00:44:30;;;;;;;3.97;1.50;;;;;;;;;;510064;28;1129;-75
2023/08/01 00:44:47;;;;;;;2.87;1.47;;;;;;;;;;509736;28;1394;-76
2023/08/01 00:45:04;;;;;;;2.55;1.38;;;;;;;;;;512472;28;1467;-76
2023/08/01 00:45:30;;;;;;;1.95;1.30;;;;;;;;;;509203;28;1507;-77
2023/08/01 00:45:46;;;;;;;2.03;1.27;;;;;;;;;;509154;28;1160;-77
2023/08/01 00:46:04;;;;;;;1.70;1.30;;;;;;;;;;510164;28;1522;-76
2023/08/01 00:46:20;;;;;;;1.92;1.30;;;;;;;;;;511606;28;1125;-77
2023/08/01 00:46:36;;;;;;;1.92;1.20;;;;;;;;;;511994;28;1346;-77
2023/08/01 00:46:52;;;;;;;2.00;1.20;;;;;;;;;;511349;28;952;-76
2023/08/01 00:47:08;;;;;;;2.40;1.40;;;;;;;;;;511620;28;1394;-76
2023/08/01 00:47:44;;;;;;;2.33;1.33;;;;;;;;;;512947;28;1605;-76
2023/08/01 00:48:00;;;;;;;3.25;1.23;;;;;;;;;;512299;28;1137;-75
2023/08/01 00:48:18;;;;;;;3.15;1.30;;;;;;;;;;511039;28;1322;-76
2023/08/01 00:48:35;;;;;;;2.70;1.23;;;;;;;;;;510619;28;1589;-77
2023/08/01 00:48:50;;;;;;;2.05;1.20;;;;;;;;;;507859;28;1413;-76
2023/08/01 00:49:08;;;;;;;1.63;1.20;;;;;;;;;;510160;28;1051;-77
2023/08/01 00:49:23;;;;;;;3.45;1.40;;;;;;;;;;511109;28;1336;-76
2023/08/01 00:50:00;;;;;;;3.03;1.30;;;;;;;;;;511383;28;986;-76
2023/08/01 00:50:16;;;;;;;2.20;1.30;;;;;;;;;;511005;28;995;-77
2023/08/01 00:50:33;;;;;;;1.73;1.23;;;;;;;;;;513240;28;1470;-77
2023/08/01 00:50:48;;;;;;;1.90;1.30;;;;;;;;;;511772;28;1260;-77
2023/08/01 00:51:06;;;;;;;1.97;1.30;;;;;;;;;;509835;28;1346;-76
2023/08/01 00:51:21;;;;;;;1.92;1.20;;;;;;;;;;506544;28;1520;-77
2023/08/01 00:51:37;;;;;;;1.88;1.10;;;;;;;;;;506488;28;1583;-76
2023/08/01 00:51:53;;;;;;;1.53;1.10;;;;;;;;;;507430;28;1265;-77
2023/08/01 00:52:09;;;;;;;2.22;1.20;;;;;;;;;;507413;28;1085;-77
2023/08/01 00:52:25;;;;;;;2.15;1.25;;;;;;;;;;510146;28;1441;-76
2023/08/01 00:52:41;;;;;;;1.70;1.20;;;;;;;;;;509756;28;1593;-76
2023/08/01 00:52:57;;;;;;;1.80;1.30;;;;;;;;;;511866;28;1228;-76
2023/08/01 00:53:13;;;;;;;1.88;1.20;;;;;;;;;;509389;28;1447;-76
2023/08/01 00:53:30;;;;;;;1.77;1.17;;;;;;;;;;510100;28;1340;-77
2023/08/01 00:53:46;;;;;;;1.35;1.10;;;;;;;;;;510132;28;1417;-77
2023/08/01 00:54:02;;;;;;;1.20;1.00;;;;;;;;;;509704;28;919;-77
2023/08/01 00:54:18;;;;;;;1.58;1.10;;;;;;;;;;510850;28;1533;-78
2023/08/01 00:54:36;;;;;;;1.50;1.02;;;;;;;;;;509970;28;1418;-77
2023/08/01 00:54:52;;;;;;;1.23;0.95;;;;;;;;;;512043;28;977;-76
2023/08/01 00:55:08;;;;;;;1.55;0.98;;;;;;;;;;510260;28;1250;-78
2023/08/01 00:55:24;;;;;;;1.85;1.00;;;;;;;;;;510173;28;1481;-77
2023/08/01 00:55:40;;;;;;;2.00;1.08;;;;;;;;;;511911;28;1479;-75
2023/08/01 00:55:57;;;;;;;1.90;1.10;;;;;;;;;;510058;28;1292;-76
2023/08/01 00:56:13;;;;;;;2.15;1.13;;;;;;;;;;507025;28;1415;-77
2023/08/01 00:56:29;;;;;;;2.13;1.00;;;;;;;;;;507895;28;1320;-78
2023/08/01 00:56:45;;;;;;;1.50;0.90;;;;;;;;;;507587;28;1205;-77
2023/08/01 00:57:01;;;;;;;1.20;0.80;;;;;;;;;;509045;28;1340;-77
2023/08/01 00:57:16;;;;;;;1.10;0.90;;;;;;;;;;509603;28;1328;-77
2023/08/01 00:57:32;;;;;;;1.35;0.90;;;;;;;;;;509372;28;1426;-76
2023/08/01 00:57:48;;;;;;;1.67;0.90;;;;;;;;;;507238;28;1425;-76
2023/08/01 00:58:04;;;;;;;1.52;1.02;;;;;;;;;;506624;28;1272;-76
2023/08/01 00:58:19;;;;;;;1.70;1.10;;;;;;;;;;505616;28;1372;-77
2023/08/01 00:58:35;;;;;;;1.92;0.93;;;;;;;;;;507287;28;1365;-77
2023/08/01 00:58:51;;;;;;;1.47;0.80;;;;;;;;;;507627;28;1305;-77
2023/08/01 00:59:07;;;;;;;1.67;0.90;;;;;;;;;;507332;28;1170;-76
2023/08/01 00:59:22;;;;;;;1.73;0.93;;;;;;;;;;507890;28;1348;-76
2023/08/01 00:59:59;;;;;;;1.38;0.90;;;;;;;;;;509549;28;1384;-77
2023/08/01 01:00:15;;;;;;;1.90;1.00;;;;;;;;;;510013;28;1136;-77
2023/08/01 01:00:31;;;;;;;1.45;0.90;;;;;;;;;;510035;28;1339;-76
2023/08/01 01:01:06;;;;;;;1.40;0.90;;;;;;;;;;512738;28;1019;-76
2023/08/01 01:01:22;;;;;;;1.15;0.90;;;;;;;;;;511631;28;1125;-76
2023/08/01 01:01:38;;;;;;;1.20;0.90;;;;;;;;;;510791;28;1518;-76
2023/08/01 01:02:34;;;;;;;1.60;1.10;;;;;;;;;;510408;28;1219;-76
2023/08/01 01:03:10;;;;;;;3.05;1.08;;;;;;;;;;513705;28;1316;-76
2023/08/01 01:03:46;;;;;;;1.70;0.80;;;;;;;;;;507458;28;1142;-76
2023/08/01 01:04:02;;;;;;;1.55;0.90;;;;;;;;;;513018;28;1178;-77
2023/08/01 01:04:18;;;;;;;1.33;0.85;;;;;;;;;;512332;28;1559;-77
2023/08/01 01:04:34;;;;;;;1.48;1.02;;;;;;;;;;512222;28;1179;-76
2023/08/01 01:04:49;;;;;;;1.40;1.00;;;;;;;;;;508807;28;1378;-77
2023/08/01 01:05:05;;;;;;;1.40;0.90;;;;;;;;;;508719;28;1411;-76
2023/08/01 01:05:24;;;;;;;1.33;0.90;;;;;;;;;;509262;28;1303;-76
2023/08/01 01:05:47;;;;;;;1.25;0.73;;;;;;;;;;511465;28;1444;-76
2023/08/01 01:06:18;;;;;;;2.10;0.90;;;;;;;;;;513101;28;943;-77
2023/08/01 01:06:43;;;;;;;1.63;0.75;;;;;;;;;;510532;28;1415;-78
2023/08/01 01:07:07;;;;;;;1.70;0.90;;;;;;;;;;511768;28;1157;-77
2023/08/01 01:07:23;;;;;;;1.27;0.80;;;;;;;;;;511511;28;1333;-76
2023/08/01 01:08:00;;;;;;;1.10;0.70;;;;;;;;;;512801;28;1374;-77
2023/08/01 01:08:15;;;;;;;2.00;1.00;;;;;;;;;;512127;28;1027;-78
2023/08/01 01:08:31;;;;;;;1.55;0.80;;;;;;;;;;512123;28;1406;-77
2023/08/01 01:08:47;;;;;;;1.13;0.80;;;;;;;;;;512992;28;1214;-77
2023/08/01 01:09:15;;;;;;;1.80;0.90;;;;;;;;;;512878;28;986;-77
2023/08/01 01:09:51;;;;;;;1.02;0.80;;;;;;;;;;511701;28;986;-77
2023/08/01 01:10:07;;;;;;;1.23;0.80;;;;;;;;;;512606;28;1298;-78
2023/08/01 01:10:22;;;;;;;1.40;0.90;;;;;;;;;;513424;28;1436;-77
2023/08/01 01:10:38;;;;;;;1.10;0.80;;;;;;;;;;513114;28;1383;-77
2023/08/01 01:10:54;;;;;;;1.03;0.77;;;;;;;;;;511786;28;1299;-76
2023/08/01 01:11:10;;;;;;;1.73;0.90;;;;;;;;;;510895;28;1490;-76
2023/08/01 01:11:25;;;;;;;1.92;0.90;;;;;;;;;;508984;28;1221;-77
2023/08/01 01:11:41;;;;;;;1.13;0.70;;;;;;;;;;509525;28;1361;-77
2023/08/01 01:11:59;;;;;;;1.13;0.80;;;;;;;;;;509425;28;1445;-76
2023/08/01 01:12:15;;;;;;;2.15;0.90;;;;;;;;;;507336;28;1410;-77
2023/08/01 01:12:31;;;;;;;2.30;0.90;;;;;;;;;;507937;28;1142;-77
2023/08/01 01:12:47;;;;;;;1.58;0.80;;;;;;;;;;508978;28;1048;-77
2023/08/01 01:13:03;;;;;;;1.27;0.77;;;;;;;;;;508959;28;1339;-76
2023/08/01 01:13:18;;;;;;;0.90;0.80;;;;;;;;;;508682;28;1315;-77
2023/08/01 01:13:54;;;;;;;1.20;0.83;;;;;;;;;;510807;28;1350;-77
2023/08/01 01:14:30;;;;;;;1.50;0.90;;;;;;;;;;509870;28;1523;-77
2023/08/01 01:15:06;;;;;;;1.33;0.80;;;;;;;;;;507239;28;1164;-77
2023/08/01 01:15:22;;;;;;;1.45;0.80;;;;;;;;;;511679;28;1411;-76
2023/08/01 01:15:38;;;;;;;1.00;0.70;;;;;;;;;;511022;28;1212;-77
2023/08/01 01:15:54;;;;;;;1.10;0.70;;;;;;;;;;509663;28;1374;-77
2023/08/01 01:16:09;;;;;;;1.48;0.80;;;;;;;;;;508454;28;1520;-77
2023/08/01 01:16:25;;;;;;;1.63;0.90;;;;;;;;;;506449;28;1285;-77
2023/08/01 01:16:44;;;;;;;1.30;0.90;;;;;;;;;;506791;28;1405;-77
2023/08/01 01:17:00;;;;;;;1.08;0.75;;;;;;;;;;506209;28;1425;-77
2023/08/01 01:17:15;;;;;;;1.88;0.85;;;;;;;;;;508771;28;1458;-77
2023/08/01 01:17:31;;;;;;;1.73;0.80;;;;;;;;;;509285;28;1412;-77
2023/08/01 01:17:47;;;;;;;1.20;0.70;;;;;;;;;;507314;28;1290;-77
2023/08/01 01:18:02;;;;;;;1.60;0.77;;;;;;;;;;507747;28;1227;-76
2023/08/01 01:18:18;;;;;;;1.48;0.77;;;;;;;;;;508141;28;1464;-76
2023/08/01 01:18:34;;;;;;;1.47;0.80;;;;;;;;;;508236;28;969;-77
2023/08/01 01:18:59;;;;;;;1.75;0.70;;;;;;;;;;510430;28;1255;-77
2023/08/01 01:19:15;;;;;;;0.93;0.70;;;;;;;;;;513753;28;1582;-77
2023/08/01 01:19:30;;;;;;;0.95;0.77;;;;;;;;;;511331;28;1401;-77
2023/08/01 01:19:46;;;;;;;1.20;0.80;;;;;;;;;;509927;28;1427;-76
2023/08/01 01:20:02;;;;;;;2.10;0.90;;;;;;;;;;507952;28;1320;-76
2023/08/01 01:20:24;;;;;;;1.73;0.83;;;;;;;;;;508677;28;1262;-76
2023/08/01 01:20:40;;;;;;;0.90;0.75;;;;;;;;;;509814;28;1429;-77
2023/08/01 01:21:16;;;;;;;1.05;0.80;;;;;;;;;;508843;28;1241;-78
2023/08/01 01:21:35;;;;;;;1.30;0.80;;;;;;;;;;510230;28;1509;-77
2023/08/01 01:21:54;;;;;;;1.15;0.73;;;;;;;;;;510352;28;1415;-77
2023/08/01 01:22:11;;;;;;;1.55;0.80;;;;;;;;;;507255;28;1362;-77
2023/08/01 01:22:27;;;;;;;1.08;0.80;;;;;;;;;;507295;28;1467;-76
2023/08/01 01:22:43;;;;;;;1.38;0.88;;;;;;;;;;508627;28;1328;-76
2023/08/01 01:23:00;;;;;;;1.75;0.93;;;;;;;;;;509277;28;1922;-77
2023/08/01 01:23:16;;;;;;;1.58;0.88;;;;;;;;;;509666;28;1288;-77
2023/08/01 01:23:33;;;;;;;1.60;0.80;;;;;;;;;;510193;28;1397;-77
2023/08/01 01:23:50;;;;;;;1.17;0.70;;;;;;;;;;510191;28;1465;-77
2023/08/01 01:24:09;;;;;;;1.52;0.80;;;;;;;;;;509802;28;1279;-76
2023/08/01 01:24:26;;;;;;;1.63;0.73;;;;;;;;;;509401;28;1426;-77
2023/08/01 01:24:42;;;;;;;1.15;0.80;;;;;;;;;;508642;28;1079;-76
2023/08/01 01:24:59;;;;;;;1.25;0.80;;;;;;;;;;509232;28;1330;-76
2023/08/01 01:25:19;;;;;;;0.95;0.70;;;;;;;;;;511040;28;1431;-77
2023/08/01 01:25:37;;;;;;;1.30;0.80;;;;;;;;;;512559;28;1580;-76
2023/08/01 01:25:54;;;;;;;1.38;0.80;;;;;;;;;;508712;28;1414;-77
2023/08/01 01:26:11;;;;;;;1.40;0.82;;;;;;;;;;510741;28;1400;-76
2023/08/01 01:26:27;;;;;;;1.02;0.80;;;;;;;;;;509474;28;1467;-77
2023/08/01 01:26:43;;;;;;;0.98;0.80;;;;;;;;;;510099;28;1248;-77
2023/08/01 01:27:00;;;;;;;0.85;0.70;;;;;;;;;;512506;28;1407;-78
2023/08/01 01:27:37;;;;;;;0.82;0.80;;;;;;;;;;513070;28;1330;-77
2023/08/01 01:27:54;;;;;;;1.27;0.80;;;;;;;;;;511137;28;1231;-77
2023/08/01 01:28:10;;;;;;;2.15;0.90;;;;;;;;;;512035;28;1295;-76
2023/08/01 01:28:26;;;;;;;2.20;0.90;;;;;;;;;;511852;28;1526;-76
2023/08/01 01:28:43;;;;;;;1.42;0.80;;;;;;;;;;510149;28;1273;-76
2023/08/01 01:29:00;;;;;;;1.55;0.88;;;;;;;;;;510040;28;1511;-76
2023/08/01 01:29:56;;;;;;;1.52;0.90;;;;;;;;;;511825;28;1150;-77
2023/08/01 01:30:12;;;;;;;1.20;0.90;;;;;;;;;;511429;28;1102;-77
2023/08/01 01:30:33;;;;;;;1.15;0.80;;;;;;;;;;511046;28;1617;-77
2023/08/01 01:30:49;;;;;;;1.70;0.80;;;;;;;;;;511577;28;1434;-76
2023/08/01 01:31:05;;;;;;;1.60;0.80;;;;;;;;;;509407;28;1499;-76
2023/08/01 01:31:21;;;;;;;1.27;0.80;;;;;;;;;;507790;28;1418;-77
2023/08/01 01:31:37;;;;;;;1.33;0.80;;;;;;;;;;507058;28;1388;-76
2023/08/01 01:31:53;;;;;;;1.70;0.90;;;;;;;;;;506945;28;1246;-76
2023/08/01 01:32:09;;;;;;;1.55;0.80;;;;;;;;;;509012;28;1496;-77
2023/08/01 01:32:25;;;;;;;1.45;0.80;;;;;;;;;;509810;28;1473;-77
2023/08/01 01:32:41;;;;;;;1.13;0.73;;;;;;;;;;509666;28;1085;-76
2023/08/01 01:32:58;;;;;;;0.90;0.80;;;;;;;;;;508593;28;1522;-76
2023/08/01 01:33:14;;;;;;;0.90;0.80;;;;;;;;;;508889;28;1193;-76
2023/08/01 01:33:30;;;;;;;1.98;0.90;;;;;;;;;;508972;28;921;-76
2023/08/01 01:33:46;;;;;;;2.50;0.93;;;;;;;;;;509102;28;1236;-76
2023/08/01 01:34:03;;;;;;;1.77;0.93;;;;;;;;;;508206;28;1641;-77
2023/08/01 01:34:19;;;;;;;1.23;0.88;;;;;;;;;;508861;28;1475;-77
2023/08/01 01:34:35;;;;;;;1.27;0.70;;;;;;;;;;508016;28;1285;-76
2023/08/01 01:34:51;;;;;;;1.65;0.80;;;;;;;;;;506583;28;1454;-77
2023/08/01 01:35:07;;;;;;;1.60;0.90;;;;;;;;;;507262;28;1550;-77
2023/08/01 01:35:23;;;;;;;0.98;0.88;;;;;;;;;;507849;28;1205;-77
2023/08/01 01:35:39;;;;;;;1.60;0.88;;;;;;;;;;510196;28;1544;-77
2023/08/01 01:35:55;;;;;;;2.08;0.90;;;;;;;;;;511579;28;1251;-76
2023/08/01 01:36:10;;;;;;;1.35;0.82;;;;;;;;;;511196;28;948;-77
2023/08/01 01:36:26;;;;;;;1.20;0.90;;;;;;;;;;509996;28;1435;-77
2023/08/01 01:36:42;;;;;;;1.63;0.90;;;;;;;;;;510093;28;1563;-77
2023/08/01 01:36:58;;;;;;;2.35;0.95;;;;;;;;;;509632;28;1321;-76
2023/08/01 01:37:13;;;;;;;1.67;1.00;;;;;;;;;;510032;28;1455;-77
2023/08/01 01:37:29;;;;;;;1.30;0.80;;;;;;;;;;510394;28;1498;-76
2023/08/01 01:37:45;;;;;;;1.77;0.80;;;;;;;;;;511206;28;1233;-76
2023/08/01 01:38:21;;;;;;;1.80;0.90;;;;;;;;;;509353;28;1458;-77
2023/08/01 01:38:37;;;;;;;1.48;0.68;;;;;;;;;;506701;28;1407;-77
2023/08/01 01:38:53;;;;;;;1.05;0.68;;;;;;;;;;507890;28;1411;-79
2023/08/01 01:39:08;;;;;;;1.10;0.80;;;;;;;;;;507957;28;1169;-77
2023/08/01 01:39:24;;;;;;;2.00;0.80;;;;;;;;;;506659;28;1557;-77
2023/08/01 01:40:00;;;;;;;2.00;0.70;;;;;;;;;;509580;28;942;-77
2023/08/01 01:40:25;;;;;;;1.30;0.73;;;;;;;;;;507935;28;1438;-77
2023/08/01 01:40:40;;;;;;;1.20;0.80;;;;;;;;;;510154;28;1583;-77
2023/08/01 01:40:56;;;;;;;1.10;0.73;;;;;;;;;;509044;28;1489;-77
2023/08/01 01:41:12;;;;;;;0.93;0.70;;;;;;;;;;510220;28;1122;-77
2023/08/01 01:41:27;;;;;;;1.10;0.70;;;;;;;;;;512073;28;1405;-77
2023/08/01 01:41:43;;;;;;;1.08;0.70;;;;;;;;;;510236;28;1398;-79
2023/08/01 01:41:59;;;;;;;1.23;0.70;;;;;;;;;;508459;28;1341;-77
2023/08/01 01:42:15;;;;;;;1.30;0.70;;;;;;;;;;511874;28;1404;-77
2023/08/01 01:42:30;;;;;;;1.20;0.90;;;;;;;;;;513528;28;1196;-77
2023/08/01 01:43:06;;;;;;;1.20;0.87;;;;;;;;;;510760;28;1395;-77
2023/08/01 01:43:22;;;;;;;1.05;0.75;;;;;;;;;;510751;28;1016;-77
2023/08/01 01:43:38;;;;;;;1.40;0.80;;;;;;;;;;512134;28;1573;-77
2023/08/01 01:43:54;;;;;;;1.42;0.80;;;;;;;;;;512067;28;1475;-77
2023/08/01 01:44:10;;;;;;;1.55;0.80;;;;;;;;;;509855;28;1256;-77
2023/08/01 01:45:06;;;;;;;1.65;0.80;;;;;;;;;;508922;28;1264;-77
2023/08/01 01:45:22;;;;;;;1.52;0.80;;;;;;;;;;508344;28;1473;-77
2023/08/01 01:45:38;;;;;;;1.40;0.80;;;;;;;;;;510288;28;943;-78
2023/08/01 01:45:53;;;;;;;1.00;0.73;;;;;;;;;;511019;28;1454;-77
2023/08/01 01:46:29;;;;;;;1.10;0.77;;;;;;;;;;512280;28;1453;-77
2023/08/01 01:47:06;;;;;;;1.02;0.80;;;;;;;;;;512046;28;1296;-77
2023/08/01 01:47:21;;;;;;;1.38;0.90;;;;;;;;;;510687;28;1369;-77
2023/08/01 01:47:37;;;;;;;1.20;0.70;;;;;;;;;;508826;28;1147;-77
2023/08/01 01:47:52;;;;;;;1.20;0.70;;;;;;;;;;510070;28;1438;-77
2023/08/01 01:48:08;;;;;;;1.30;0.70;;;;;;;;;;508480;28;1232;-78
2023/08/01 01:48:24;;;;;;;1.20;0.80;;;;;;;;;;508234;28;1228;-77
2023/08/01 01:48:42;;;;;;;1.38;0.90;;;;;;;;;;509275;28;1286;-78
2023/08/01 01:48:58;;;;;;;1.20;0.90;;;;;;;;;;509226;28;971;-77
2023/08/01 01:49:13;;;;;;;1.48;0.80;;;;;;;;;;509930;28;1398;-77
2023/08/01 01:49:29;;;;;;;1.55;0.80;;;;;;;;;;507882;28;1317;-77
2023/08/01 01:49:45;;;;;;;1.20;0.90;;;;;;;;;;509760;28;1239;-77
2023/08/01 01:50:01;;;;;;;1.30;0.90;;;;;;;;;;508795;28;1441;-77
2023/08/01 01:50:17;;;;;;;1.63;0.90;;;;;;;;;;507885;28;1443;-78
2023/08/01 01:50:34;;;;;;;1.63;0.88;;;;;;;;;;509100;28;1637;-77
2023/08/01 01:50:49;;;;;;;1.13;0.70;;;;;;;;;;509746;28;1447;-77
2023/08/01 01:51:05;;;;;;;1.50;0.80;;;;;;;;;;510273;28;1182;-78
2023/08/01 01:51:22;;;;;;;1.33;0.80;;;;;;;;;;510087;28;1376;-77
2023/08/01 01:51:37;;;;;;;1.08;0.73;;;;;;;;;;512804;28;1283;-77
2023/08/01 01:51:53;;;;;;;1.17;0.70;;;;;;;;;;510855;28;1300;-77
2023/08/01 01:52:11;;;;;;;1.10;0.70;;;;;;;;;;510305;28;1454;-77
2023/08/01 01:52:27;;;;;;;1.35;0.80;;;;;;;;;;510266;28;1329;-77
2023/08/01 01:52:43;;;;;;;1.25;0.80;;;;;;;;;;509576;28;1272;-76
2023/08/01 01:52:59;;;;;;;1.35;0.75;;;;;;;;;;509555;28;1101;-78
2023/08/01 01:53:15;;;;;;;1.63;0.80;;;;;;;;;;510275;28;951;-77
2023/08/01 01:53:31;;;;;;;1.63;0.70;;;;;;;;;;509154;28;1390;-77
2023/08/01 01:53:46;;;;;;;1.45;0.60;;;;;;;;;;509176;28;1285;-78
2023/08/01 01:54:02;;;;;;;1.13;0.70;;;;;;;;;;510013;28;1362;-77
2023/08/01 01:54:18;;;;;;;1.13;0.80;;;;;;;;;;508816;28;1177;-76